Time;durP1;ratioP1;P1;durP2;ratioP2;P2;SDS_P1;SDS_P2;PMS_P1;PMS_P2;Temp;Humidity;BMP_temperature;BMP_pressure;BME280_temperature;BME280_humidity;BME280_pressure;Samples;Min_cycle;Max_cycle;Signal;HPM_P1;HPM_P2
2021/11/14 00:00:18;;;;;;;11.57;10.53;;;12.50;99.90;;;;;;5054912;28;20227;-77
2021/11/14 00:02:44;;;;;;;11.83;10.73;;;12.50;99.90;;;;;;5054956;28;20506;-68
2021/11/14 00:05:11;;;;;;;12.60;11.40;;;12.50;99.90;;;;;;5054558;28;20404;-77
2021/11/14 00:07:37;;;;;;;12.70;11.50;;;12.50;99.90;;;;;;5053626;28;20456;-68
2021/11/14 00:10:05;;;;;;;12.13;11.00;;;12.50;99.90;;;;;;5055115;28;20831;-68
2021/11/14 00:12:31;;;;;;;11.87;10.73;;;12.50;99.90;;;;;;5054253;28;20401;-68
2021/11/14 00:14:57;;;;;;;12.30;11.20;;;12.50;99.90;;;;;;5055073;28;20410;-68
2021/11/14 00:17:22;;;;;;;12.60;11.50;;;12.50;99.90;;;;;;5053599;28;20775;-69
2021/11/14 00:19:48;;;;;;;12.07;10.97;;;12.50;99.90;;;;;;5054813;28;20175;-68
2021/11/14 00:22:14;;;;;;;12.53;11.30;;;12.50;99.90;;;;;;5053676;28;20174;-69
2021/11/14 00:24:40;;;;;;;11.77;10.70;;;12.50;99.90;;;;;;5054922;28;20579;-68
2021/11/14 00:27:06;;;;;;;13.90;12.53;;;12.50;99.90;;;;;;5054394;28;20483;-68
2021/11/14 00:29:32;;;;;;;12.37;11.10;;;12.50;99.90;;;;;;5053845;28;20178;-68
2021/11/14 00:31:58;;;;;;;10.90;10.00;;;12.50;99.90;;;;;;5053929;28;20750;-68
2021/11/14 00:34:24;;;;;;;12.13;10.93;;;12.60;99.90;;;;;;5053798;28;20269;-68
2021/11/14 00:36:53;;;;;;;11.53;10.53;;;12.50;99.90;;;;;;5054339;28;20283;-68
2021/11/14 00:39:19;;;;;;;12.40;11.27;;;12.50;99.90;;;;;;5053498;28;21038;-68
2021/11/14 00:41:46;;;;;;;11.33;10.40;;;12.50;99.90;;;;;;5054473;28;20408;-68
2021/11/14 00:44:13;;;;;;;12.23;11.00;;;12.50;99.90;;;;;;5053772;28;20823;-78
2021/11/14 00:46:39;;;;;;;11.17;10.17;;;12.50;99.90;;;;;;5054694;28;20993;-68
2021/11/14 00:49:05;;;;;;;11.93;10.83;;;12.50;99.90;;;;;;5054364;28;20784;-68
2021/11/14 00:51:31;;;;;;;13.07;11.80;;;12.50;99.90;;;;;;5053578;28;20904;-68
2021/11/14 00:54:01;;;;;;;12.33;11.13;;;12.50;99.90;;;;;;5053731;28;20456;-68
2021/11/14 00:56:28;;;;;;;12.40;11.17;;;12.50;99.90;;;;;;5053495;28;20479;-68
2021/11/14 00:58:54;;;;;;;12.57;11.47;;;12.60;99.90;;;;;;5052933;28;20412;-68
2021/11/14 01:01:21;;;;;;;12.10;11.00;;;12.50;99.90;;;;;;5053323;28;20400;-68
2021/11/14 01:03:47;;;;;;;12.47;11.27;;;12.50;99.90;;;;;;5052713;28;20956;-68
2021/11/14 01:06:13;;;;;;;12.40;11.20;;;12.50;99.90;;;;;;5053529;28;20444;-77
2021/11/14 01:08:39;;;;;;;13.53;11.93;;;12.50;99.90;;;;;;5053348;28;20452;-68
2021/11/14 01:11:06;;;;;;;13.40;11.93;;;12.50;99.90;;;;;;5052564;28;20833;-68
2021/11/14 01:13:34;;;;;;;13.50;12.20;;;12.60;99.90;;;;;;5051969;28;20420;-68
2021/11/14 01:16:00;;;;;;;13.53;12.30;;;12.60;99.90;;;;;;5053504;28;20854;-68
2021/11/14 01:18:26;;;;;;;12.23;11.13;;;12.50;99.90;;;;;;5052945;28;20435;-68
2021/11/14 01:20:57;;;;;;;13.03;11.73;;;12.60;99.90;;;;;;5053496;28;20410;-69
2021/11/14 01:23:24;;;;;;;13.60;12.20;;;12.60;99.90;;;;;;5053342;28;20197;-68
2021/11/14 01:25:50;;;;;;;13.30;12.00;;;12.60;99.90;;;;;;5053699;28;20401;-68
2021/11/14 01:28:17;;;;;;;12.97;11.60;;;12.60;99.90;;;;;;5052861;28;20455;-75
2021/11/14 01:30:46;;;;;;;14.00;12.63;;;12.60;99.90;;;;;;5053199;28;20401;-69
2021/11/14 01:33:14;;;;;;;13.67;12.37;;;12.60;99.90;;;;;;5033691;28;20746;-68
2021/11/14 01:35:41;;;;;;;13.50;12.27;;;12.60;99.90;;;;;;5033306;28;20489;-68
2021/11/14 01:38:08;;;;;;;14.07;12.67;;;12.60;99.90;;;;;;5036403;28;20428;-68
2021/11/14 01:40:59;;;;;;;13.73;12.43;;;12.60;99.90;;;;;;5052170;28;20561;-69
2021/11/14 01:43:30;;;;;;;13.43;12.07;;;12.60;99.90;;;;;;5049433;28;20428;-69
2021/11/14 01:45:56;;;;;;;13.50;12.20;;;12.60;99.90;;;;;;5053038;28;20457;-68
2021/11/14 01:48:21;;;;;;;13.47;12.10;;;12.60;99.90;;;;;;5052421;28;20468;-69
2021/11/14 01:50:48;;;;;;;13.03;11.80;;;12.60;99.90;;;;;;5053310;28;20400;-68
2021/11/14 01:53:14;;;;;;;12.97;11.67;;;12.60;99.90;;;;;;5052979;28;20193;-76
2021/11/14 01:55:44;;;;;;;12.03;10.93;;;12.60;99.90;;;;;;5052164;28;20441;-68
2021/11/14 01:58:14;;;;;;;12.20;11.10;;;12.60;99.90;;;;;;5052927;28;20411;-69
2021/11/14 02:00:45;;;;;;;12.20;11.00;;;12.60;99.90;;;;;;5052554;28;20526;-68
2021/11/14 02:03:12;;;;;;;12.30;11.10;;;12.60;99.90;;;;;;5053239;28;20396;-68
2021/11/14 02:05:38;;;;;;;13.00;11.80;;;12.60;99.90;;;;;;5051771;28;20439;-68
2021/11/14 02:08:06;;;;;;;10.87;9.87;;;12.50;99.90;;;;;;5052442;28;20952;-68
2021/11/14 02:10:33;;;;;;;11.60;10.50;;;12.50;99.90;;;;;;5052047;28;20412;-68
2021/11/14 02:12:59;;;;;;;12.47;11.37;;;12.50;99.90;;;;;;5052781;28;20508;-68
2021/11/14 02:15:26;;;;;;;11.23;10.23;;;12.50;99.90;;;;;;5050548;28;20406;-68
2021/11/14 02:17:52;;;;;;;11.40;10.40;;;12.50;99.90;;;;;;5051245;28;20430;-68
2021/11/14 02:20:19;;;;;;;11.80;10.80;;;12.50;99.90;;;;;;5052168;28;20411;-78
2021/11/14 02:22:45;;;;;;;12.47;11.27;;;12.50;99.90;;;;;;5052661;28;20440;-68
2021/11/14 02:25:14;;;;;;;11.43;10.37;;;12.50;99.90;;;;;;5052590;28;20450;-68
2021/11/14 02:27:41;;;;;;;11.10;10.10;;;12.50;99.90;;;;;;5051784;28;20471;-68
2021/11/14 02:30:11;;;;;;;11.00;10.00;;;12.50;99.90;;;;;;5052461;28;20451;-68
2021/11/14 02:32:37;;;;;;;11.93;10.87;;;12.50;99.90;;;;;;5051689;28;20487;-68
2021/11/14 02:35:04;;;;;;;10.90;9.90;;;12.40;99.90;;;;;;5052160;28;20858;-68
2021/11/14 02:37:30;;;;;;;10.80;9.87;;;12.40;99.90;;;;;;5051583;28;20408;-68
2021/11/14 02:39:55;;;;;;;11.47;10.47;;;12.40;99.90;;;;;;5052153;28;20454;-68
2021/11/14 02:42:21;;;;;;;11.40;10.30;;;12.30;99.90;;;;;;5051221;28;20650;-69
2021/11/14 02:44:47;;;;;;;10.67;9.67;;;12.40;99.90;;;;;;5051728;28;20227;-68
2021/11/14 02:47:13;;;;;;;10.80;9.70;;;12.30;99.90;;;;;;5051924;28;20721;-68
2021/11/14 02:49:39;;;;;;;11.10;10.10;;;12.40;99.90;;;;;;5051460;28;20171;-68
2021/11/14 02:52:06;;;;;;;11.43;10.40;;;12.40;99.90;;;;;;5052174;28;20401;-68
2021/11/14 02:54:32;;;;;;;11.00;10.00;;;12.40;99.90;;;;;;5050257;28;20521;-68
2021/11/14 02:56:58;;;;;;;10.13;9.33;;;12.30;99.90;;;;;;5051648;28;20422;-68
2021/11/14 02:59:24;;;;;;;11.83;10.37;;;12.30;99.90;;;;;;5051375;28;20768;-68
2021/11/14 03:01:53;;;;;;;12.03;10.83;;;12.30;99.90;;;;;;5052276;28;20722;-68
2021/11/14 03:04:21;;;;;;;11.50;10.40;;;12.30;99.90;;;;;;5051791;28;20900;-77
2021/11/14 03:06:52;;;;;;;11.33;10.30;;;12.30;99.90;;;;;;5050073;28;20528;-68
2021/11/14 03:09:18;;;;;;;10.33;9.43;;;12.30;99.90;;;;;;5052121;28;21014;-75
2021/11/14 03:11:45;;;;;;;11.07;9.97;;;12.30;99.90;;;;;;5050253;28;20412;-68
2021/11/14 03:14:11;;;;;;;11.07;10.07;;;12.30;99.90;;;;;;5051708;28;20402;-68
2021/11/14 03:16:38;;;;;;;11.20;10.20;;;12.40;99.90;;;;;;5051208;28;20521;-68
2021/11/14 03:19:04;;;;;;;11.20;10.10;;;12.30;99.90;;;;;;5051714;28;20507;-68
2021/11/14 03:21:31;;;;;;;10.77;9.73;;;12.40;99.90;;;;;;5051075;28;20412;-68
2021/11/14 03:23:57;;;;;;;11.37;10.27;;;12.30;99.90;;;;;;5051869;28;20499;-69
2021/11/14 03:26:24;;;;;;;10.57;9.67;;;12.30;99.90;;;;;;5049961;28;20540;-77
2021/11/14 03:28:50;;;;;;;11.07;10.17;;;12.30;99.90;;;;;;5052301;28;20414;-68
2021/11/14 03:31:15;;;;;;;10.47;9.57;;;12.30;99.90;;;;;;5051757;28;20422;-68
2021/11/14 03:33:42;;;;;;;10.90;9.90;;;12.30;99.90;;;;;;5051039;28;20173;-69
2021/11/14 03:36:11;;;;;;;11.13;10.10;;;12.30;99.90;;;;;;5051615;28;20178;-68
2021/11/14 03:38:47;;;;;;;11.00;10.00;;;12.30;99.90;;;;;;5050772;28;20425;-69
2021/11/14 03:41:16;;;;;;;10.83;9.93;;;12.30;99.90;;;;;;5051845;28;20492;-69
2021/11/14 03:43:42;;;;;;;11.10;10.00;;;12.30;99.90;;;;;;5050631;28;20706;-68
2021/11/14 03:46:09;;;;;;;11.53;10.43;;;12.20;99.90;;;;;;5051169;28;20463;-68
2021/11/14 03:48:38;;;;;;;12.10;11.00;;;12.20;99.90;;;;;;5050626;28;20776;-69
2021/11/14 03:51:05;;;;;;;10.73;9.77;;;12.20;99.90;;;;;;5051659;28;20432;-69
2021/11/14 03:53:32;;;;;;;11.40;10.37;;;12.10;99.90;;;;;;5050563;28;20888;-69
2021/11/14 03:55:57;;;;;;;11.70;10.50;;;12.20;99.90;;;;;;5051703;28;20604;-68
2021/11/14 03:58:23;;;;;;;11.97;10.90;;;12.10;99.90;;;;;;5050683;28;20416;-77
2021/11/14 04:00:54;;;;;;;12.40;11.30;;;12.10;99.90;;;;;;5051164;28;20185;-68
2021/11/14 04:03:20;;;;;;;12.77;11.47;;;12.10;99.90;;;;;;5033843;28;20416;-68
2021/11/14 04:05:46;;;;;;;12.67;11.43;;;12.10;99.90;;;;;;5051634;28;20884;-69
2021/11/14 04:08:15;;;;;;;14.80;12.60;;;12.00;99.90;;;;;;5054786;28;20463;-68
2021/11/14 04:10:43;;;;;;;12.97;11.67;;;12.00;99.90;;;;;;5054358;28;20440;-68
2021/11/14 04:13:09;;;;;;;13.87;12.40;;;12.00;99.90;;;;;;5055155;28;20415;-68
2021/11/14 04:15:36;;;;;;;12.20;11.00;;;12.00;99.90;;;;;;5054245;28;20424;-68
2021/11/14 04:18:02;;;;;;;12.63;11.43;;;12.00;99.90;;;;;;5054868;28;20437;-68
2021/11/14 04:20:29;;;;;;;11.57;10.57;;;12.00;99.90;;;;;;5054242;28;20423;-69
2021/11/14 04:22:56;;;;;;;11.20;10.20;;;12.10;99.90;;;;;;5055049;28;20408;-68
2021/11/14 04:25:23;;;;;;;12.57;11.23;;;12.00;99.90;;;;;;5054973;28;20415;-68
2021/11/14 04:27:49;;;;;;;12.40;11.20;;;12.00;99.90;;;;;;5054388;28;20474;-68
2021/11/14 04:30:16;;;;;;;12.73;11.00;;;12.00;99.90;;;;;;5054180;28;20427;-68
2021/11/14 04:32:43;;;;;;;11.37;10.27;;;11.90;99.90;;;;;;5053679;28;20494;-68
2021/11/14 04:35:09;;;;;;;11.90;10.80;;;11.90;99.90;;;;;;5054737;28;20408;-68
2021/11/14 04:37:36;;;;;;;13.20;11.50;;;11.80;99.90;;;;;;5052776;28;20728;-68
2021/11/14 04:40:02;;;;;;;15.17;11.50;;;11.80;99.90;;;;;;5054821;28;20541;-68
2021/11/14 04:42:28;;;;;;;12.93;11.73;;;11.70;99.90;;;;;;5053474;28;20463;-71
2021/11/14 04:44:54;;;;;;;12.43;11.23;;;11.70;99.90;;;;;;5054522;28;20507;-68
2021/11/14 04:47:19;;;;;;;12.57;11.33;;;11.80;99.90;;;;;;5054631;28;20209;-68
2021/11/14 04:49:45;;;;;;;12.40;10.93;;;11.70;99.90;;;;;;5054464;28;20176;-68
2021/11/14 04:52:11;;;;;;;12.37;11.20;;;11.60;99.90;;;;;;5054837;28;20244;-68
2021/11/14 04:54:36;;;;;;;12.20;11.00;;;11.60;99.90;;;;;;5054095;28;20180;-68
2021/11/14 04:57:02;;;;;;;12.50;11.33;;;11.60;99.90;;;;;;5054426;28;20210;-68
2021/11/14 04:59:28;;;;;;;11.20;10.20;;;11.60;99.90;;;;;;5053709;28;20477;-69
2021/11/14 05:01:54;;;;;;;11.40;10.30;;;11.70;99.90;;;;;;5054635;28;20942;-68
2021/11/14 05:04:20;;;;;;;11.40;9.77;;;11.70;99.90;;;;;;5054517;28;20228;-68
2021/11/14 05:06:45;;;;;;;11.13;10.07;;;11.60;99.90;;;;;;5053829;28;20212;-68
2021/11/14 05:09:11;;;;;;;11.93;10.73;;;11.60;99.90;;;;;;5053920;28;20178;-68
2021/11/14 05:11:37;;;;;;;10.93;9.93;;;11.60;99.90;;;;;;5052780;28;20185;-68
2021/11/14 05:14:04;;;;;;;12.00;10.90;;;11.60;99.90;;;;;;5054013;28;20170;-68
2021/11/14 05:16:29;;;;;;;11.07;10.00;;;11.50;99.90;;;;;;5052399;28;20774;-75
2021/11/14 05:18:56;;;;;;;11.17;10.17;;;11.50;99.90;;;;;;5053803;28;20412;-68
2021/11/14 05:21:22;;;;;;;12.30;11.03;;;11.50;99.90;;;;;;5053490;28;20605;-68
2021/11/14 05:23:48;;;;;;;12.83;10.93;;;11.50;99.90;;;;;;5052574;28;20450;-68
2021/11/14 05:26:13;;;;;;;11.97;10.77;;;11.50;99.90;;;;;;5053516;28;20448;-68
2021/11/14 05:28:40;;;;;;;13.63;10.90;;;11.40;99.90;;;;;;5052935;28;20220;-69
2021/11/14 05:31:06;;;;;;;13.57;10.73;;;11.30;99.90;;;;;;5053431;28;20677;-68
2021/11/14 05:33:32;;;;;;;12.20;10.40;;;11.30;99.90;;;;;;5052492;28;20407;-69
2021/11/14 05:35:57;;;;;;;12.20;10.57;;;11.30;99.90;;;;;;5053561;28;20876;-68
2021/11/14 05:38:23;;;;;;;10.63;9.43;;;11.20;99.90;;;;;;5052899;28;20476;-67
2021/11/14 05:40:49;;;;;;;13.03;10.60;;;11.10;99.90;;;;;;5052674;28;20173;-68
2021/11/14 05:43:15;;;;;;;12.27;11.07;;;11.10;99.90;;;;;;5052475;28;20261;-67
2021/11/14 05:45:41;;;;;;;10.40;9.30;;;11.10;99.90;;;;;;5052371;28;20267;-67
2021/11/14 05:48:07;;;;;;;13.00;11.60;;;11.00;99.90;;;;;;5053286;28;20218;-67
2021/11/14 05:50:33;;;;;;;13.13;10.33;;;11.10;99.90;;;;;;5052140;28;20424;-69
2021/11/14 05:52:59;;;;;;;11.57;10.47;;;11.10;99.90;;;;;;5053158;28;21017;-68
2021/11/14 05:55:25;;;;;;;10.67;9.67;;;11.10;99.90;;;;;;5051652;28;20423;-67
2021/11/14 05:58:01;;;;;;;15.07;11.07;;;11.10;99.90;;;;;;5051902;28;20313;-68
2021/11/14 06:03:11;;;;;;;12.00;10.60;;;11.10;99.90;;;;;;5053143;28;20436;-69
2021/11/14 06:05:39;;;;;;;12.27;11.00;;;11.10;99.90;;;;;;5051998;28;20413;-69
2021/11/14 06:08:06;;;;;;;11.77;10.60;;;11.10;99.90;;;;;;5052986;28;20460;-69
2021/11/14 06:10:33;;;;;;;11.73;10.57;;;11.10;99.90;;;;;;5052413;28;20542;-78
2021/11/14 06:13:00;;;;;;;11.27;10.17;;;11.10;99.90;;;;;;5051410;28;20434;-68
2021/11/14 06:15:26;;;;;;;11.37;10.17;;;11.20;99.90;;;;;;5052572;28;20421;-68
2021/11/14 06:17:52;;;;;;;15.13;10.40;;;11.10;99.90;;;;;;5052198;28;20424;-68
2021/11/14 06:20:18;;;;;;;11.23;10.00;;;11.10;99.90;;;;;;5052374;28;20418;-69
2021/11/14 06:22:45;;;;;;;10.60;9.60;;;11.10;99.90;;;;;;5051873;28;20200;-69
2021/11/14 06:25:11;;;;;;;11.67;10.47;;;11.00;99.90;;;;;;5051842;28;20515;-68
2021/11/14 06:27:38;;;;;;;11.53;10.33;;;11.10;99.90;;;;;;5052214;28;20526;-69
2021/11/14 06:30:06;;;;;;;11.70;10.23;;;11.00;99.90;;;;;;5052370;28;20415;-69
2021/11/14 06:32:32;;;;;;;12.77;10.83;;;11.00;99.90;;;;;;5051999;28;20892;-70
2021/11/14 06:34:59;;;;;;;11.37;10.27;;;11.00;99.90;;;;;;5053128;28;20498;-69
2021/11/14 06:37:26;;;;;;;12.10;10.80;;;11.00;99.90;;;;;;5050415;28;20708;-69
2021/11/14 06:39:51;;;;;;;11.80;10.53;;;10.90;99.90;;;;;;5049586;28;20420;-70
2021/11/14 06:42:17;;;;;;;11.40;10.40;;;10.80;99.90;;;;;;5051326;28;20406;-69
2021/11/14 06:44:44;;;;;;;12.50;11.30;;;10.80;99.90;;;;;;5050723;28;20231;-69
2021/11/14 06:47:11;;;;;;;12.27;11.00;;;10.80;99.90;;;;;;5052331;28;20201;-69
2021/11/14 06:49:38;;;;;;;11.80;10.80;;;10.80;99.90;;;;;;5051970;28;20847;-69
2021/11/14 06:52:04;;;;;;;12.10;10.90;;;10.80;99.90;;;;;;5052567;28;20482;-69
2021/11/14 06:54:30;;;;;;;11.50;10.40;;;10.80;99.90;;;;;;5052555;28;20265;-69
2021/11/14 06:56:56;;;;;;;12.33;10.93;;;10.80;99.90;;;;;;5051496;28;20530;-69
2021/11/14 06:59:22;;;;;;;14.50;13.00;;;10.80;99.90;;;;;;5052201;28;20511;-68
2021/11/14 07:01:48;;;;;;;12.73;11.40;;;10.70;99.90;;;;;;5051906;28;20461;-69
2021/11/14 07:04:14;;;;;;;11.80;10.60;;;10.60;99.90;;;;;;5052499;28;20523;-69
2021/11/14 07:06:39;;;;;;;12.93;11.67;;;10.60;99.90;;;;;;5051452;28;20209;-69
2021/11/14 07:09:07;;;;;;;13.23;11.83;;;10.60;99.90;;;;;;5052523;28;20809;-69
2021/11/14 07:11:33;;;;;;;12.50;11.30;;;10.70;99.90;;;;;;5050550;28;20173;-81
2021/11/14 07:14:00;;;;;;;12.90;11.70;;;10.60;99.90;;;;;;5052094;28;20797;-68
2021/11/14 07:16:27;;;;;;;12.10;10.90;;;10.60;99.90;;;;;;5052396;28;20433;-68
2021/11/14 07:18:54;;;;;;;11.60;10.60;;;10.60;99.90;;;;;;5050983;28;20936;-68
2021/11/14 07:21:21;;;;;;;11.97;10.80;;;10.60;99.90;;;;;;5051472;28;20777;-67
2021/11/14 07:23:47;;;;;;;12.70;10.60;;;10.60;99.90;;;;;;5050959;28;20422;-67
2021/11/14 07:26:13;;;;;;;12.17;10.97;;;10.60;99.90;;;;;;5051568;28;20431;-67
2021/11/14 07:28:39;;;;;;;13.40;10.80;;;10.70;99.90;;;;;;5055316;28;20784;-68
2021/11/14 07:31:05;;;;;;;13.40;12.00;;;10.70;99.90;;;;;;5060586;28;20633;-67
2021/11/14 07:33:31;;;;;;;13.70;12.30;;;10.70;99.90;;;;;;5052073;28;20185;-67
2021/11/14 07:35:57;;;;;;;12.53;11.30;;;10.80;99.90;;;;;;5051385;28;20906;-67
2021/11/14 07:38:22;;;;;;;12.60;11.30;;;10.90;99.90;;;;;;5052249;28;20441;-67
2021/11/14 07:40:48;;;;;;;11.47;10.27;;;10.80;99.90;;;;;;5053468;28;20486;-67
2021/11/14 07:43:14;;;;;;;12.43;11.20;;;10.90;99.90;;;;;;5055359;28;20181;-67
2021/11/14 07:45:40;;;;;;;12.57;11.23;;;10.80;99.90;;;;;;5054038;28;20217;-67
2021/11/14 07:48:07;;;;;;;13.00;11.20;;;10.80;99.90;;;;;;5054720;28;20458;-68
2021/11/14 07:50:34;;;;;;;12.40;11.10;;;10.80;99.90;;;;;;5055207;28;20185;-67
2021/11/14 07:53:01;;;;;;;11.83;10.73;;;10.80;99.90;;;;;;5055523;28;20944;-67
2021/11/14 07:55:27;;;;;;;11.47;10.37;;;10.70;99.90;;;;;;5035889;28;20410;-67
2021/11/14 07:57:53;;;;;;;11.40;10.20;;;10.70;99.90;;;;;;5052999;28;20556;-67
2021/11/14 08:00:21;;;;;;;11.80;10.60;;;10.70;99.90;;;;;;5055483;28;20787;-68
2021/11/14 08:02:48;;;;;;;13.97;10.63;;;10.60;99.90;;;;;;5054858;28;20429;-67
2021/11/14 08:05:15;;;;;;;13.23;11.80;;;10.50;99.90;;;;;;5055074;28;20930;-68
2021/11/14 08:07:41;;;;;;;11.37;10.27;;;10.50;99.90;;;;;;5054925;28;20472;-68
2021/11/14 08:10:08;;;;;;;12.67;11.37;;;10.50;99.90;;;;;;5052863;28;20767;-67
2021/11/14 08:12:34;;;;;;;13.43;12.03;;;10.60;99.90;;;;;;5055483;28;20410;-68
2021/11/14 08:15:00;;;;;;;13.97;11.63;;;10.60;99.90;;;;;;5054613;28;20423;-67
2021/11/14 08:17:26;;;;;;;13.00;11.57;;;10.60;99.90;;;;;;5054488;28;20435;-68
2021/11/14 08:19:55;;;;;;;11.23;9.97;;;10.50;99.90;;;;;;5052837;28;20454;-67
2021/11/14 08:22:21;;;;;;;12.50;11.10;;;10.50;99.90;;;;;;5055328;28;20408;-67
2021/11/14 08:24:47;;;;;;;12.03;10.83;;;10.60;99.90;;;;;;5054656;28;20502;-68
2021/11/14 08:27:13;;;;;;;12.50;11.20;;;10.60;99.90;;;;;;5055187;28;20449;-67
2021/11/14 08:29:39;;;;;;;14.90;12.00;;;10.60;99.90;;;;;;5054640;28;20490;-68
2021/11/14 08:32:05;;;;;;;11.50;10.30;;;10.50;99.90;;;;;;5055417;28;20272;-67
2021/11/14 08:34:31;;;;;;;13.60;12.40;;;10.50;99.90;;;;;;5054007;28;20166;-67
2021/11/14 08:36:57;;;;;;;11.67;10.47;;;10.60;99.90;;;;;;5054527;28;21296;-68
2021/11/14 08:39:23;;;;;;;13.83;11.60;;;10.60;99.90;;;;;;5055165;28;20259;-68
2021/11/14 08:41:49;;;;;;;12.43;11.10;;;10.60;99.90;;;;;;5054165;28;20269;-68
2021/11/14 08:44:15;;;;;;;361.30;203.53;;;10.50;99.90;;;;;;5054846;28;20762;-68
2021/11/14 08:46:41;;;;;;;146.83;101.50;;;10.50;99.90;;;;;;5053706;28;20470;-68
2021/11/14 08:49:06;;;;;;;23.20;18.00;;;10.50;99.90;;;;;;5053659;28;20437;-68
2021/11/14 08:51:32;;;;;;;13.50;12.10;;;10.60;99.90;;;;;;5053490;28;20176;-68
2021/11/14 08:53:58;;;;;;;13.77;12.20;;;10.60;99.90;;;;;;5053333;28;20375;-68
2021/11/14 08:56:36;;;;;;;13.73;11.63;;;10.60;99.90;;;;;;5054110;28;20179;-68
2021/11/14 08:59:05;;;;;;;13.37;11.97;;;10.60;99.90;;;;;;5054041;28;20428;-67
2021/11/14 09:01:32;;;;;;;13.77;12.37;;;10.60;99.90;;;;;;5054550;28;20419;-68
2021/11/14 09:03:58;;;;;;;13.60;12.03;;;10.60;99.90;;;;;;5053718;28;20416;-68
2021/11/14 09:06:24;;;;;;;13.43;12.03;;;10.60;99.90;;;;;;5054167;28;20430;-68
2021/11/14 09:08:50;;;;;;;14.97;12.90;;;10.60;99.90;;;;;;5053580;28;20770;-68
2021/11/14 09:11:17;;;;;;;15.07;13.50;;;10.60;99.90;;;;;;5054766;28;20177;-67
2021/11/14 09:13:43;;;;;;;14.83;13.43;;;10.70;99.90;;;;;;5053324;28;20507;-68
2021/11/14 09:16:09;;;;;;;13.93;12.53;;;10.70;99.90;;;;;;5053745;28;20526;-68
2021/11/14 09:18:36;;;;;;;14.53;13.00;;;10.80;99.90;;;;;;5054362;28;20418;-68
2021/11/14 09:21:02;;;;;;;15.37;13.10;;;10.80;99.90;;;;;;5053315;28;20982;-69
2021/11/14 09:23:28;;;;;;;16.70;14.10;;;10.80;99.90;;;;;;5053975;28;20407;-68
2021/11/14 09:25:55;;;;;;;14.70;13.17;;;10.90;99.90;;;;;;5053546;28;20513;-68
2021/11/14 09:28:21;;;;;;;15.20;13.60;;;11.00;99.90;;;;;;5053704;28;20910;-67
2021/11/14 09:30:50;;;;;;;14.67;13.03;;;11.00;99.90;;;;;;5053464;28;20888;-67
2021/11/14 09:33:20;;;;;;;15.00;13.50;;;11.00;99.90;;;;;;5053985;28;20400;-68
2021/11/14 09:35:47;;;;;;;15.53;13.20;;;11.00;99.90;;;;;;5053476;28;20396;-68
2021/11/14 09:38:14;;;;;;;14.87;13.37;;;11.00;99.90;;;;;;5053878;28;20926;-68
2021/11/14 09:40:41;;;;;;;15.43;12.63;;;11.00;99.90;;;;;;5052917;28;20422;-68
2021/11/14 09:43:07;;;;;;;14.00;12.60;;;11.00;99.90;;;;;;5052872;28;20512;-69
2021/11/14 09:45:34;;;;;;;13.20;11.80;;;11.00;99.90;;;;;;5052518;28;20799;-68
2021/11/14 09:48:01;;;;;;;14.87;11.90;;;11.00;99.90;;;;;;5051541;28;20670;-72
2021/11/14 09:50:27;;;;;;;14.60;11.70;;;11.10;99.90;;;;;;5052461;28;20463;-68
2021/11/14 09:52:53;;;;;;;13.20;11.80;;;11.10;99.90;;;;;;5051283;28;20795;-68
2021/11/14 09:55:20;;;;;;;120.30;69.43;;;11.30;99.90;;;;;;5051793;28;20934;-67
2021/11/14 09:57:47;;;;;;;22.60;17.17;;;11.20;99.90;;;;;;5051486;28;20506;-68
2021/11/14 10:00:15;;;;;;;13.33;11.77;;;11.30;99.90;;;;;;5051983;28;20774;-68
2021/11/14 10:02:41;;;;;;;13.13;11.77;;;11.40;99.90;;;;;;5052386;28;20421;-72
2021/11/14 10:05:09;;;;;;;13.87;11.67;;;11.40;99.90;;;;;;5052675;28;20901;-68
2021/11/14 10:07:37;;;;;;;12.87;11.57;;;11.50;99.90;;;;;;5053136;28;20451;-67
2021/11/14 10:10:03;;;;;;;12.20;11.00;;;11.50;99.90;;;;;;5052643;28;20419;-68
2021/11/14 10:12:38;;;;;;;13.03;11.43;;;11.60;99.90;;;;;;5053144;28;20412;-67
2021/11/14 10:15:16;;;;;;;12.27;11.00;;;11.60;99.90;;;;;;5051228;28;20902;-68
2021/11/14 10:17:51;;;;;;;11.70;10.50;;;11.40;99.90;;;;;;5052342;28;20431;-72
2021/11/14 10:20:23;;;;;;;11.73;9.73;;;11.50;99.90;;;;;;5053122;28;20404;-68
2021/11/14 10:22:57;;;;;;;11.00;9.93;;;11.50;99.90;;;;;;5052464;28;20400;-68
2021/11/14 10:25:24;;;;;;;12.53;10.80;;;11.50;99.90;;;;;;5053085;28;20397;-68
2021/11/14 10:27:52;;;;;;;10.63;9.63;;;11.60;99.90;;;;;;5052255;28;20934;-68
2021/11/14 10:30:24;;;;;;;12.10;10.90;;;11.70;99.90;;;;;;5052996;28;20404;-68
2021/11/14 10:32:54;;;;;;;10.43;9.33;;;11.70;99.90;;;;;;5052053;28;20444;-68
2021/11/14 10:35:20;;;;;;;11.80;10.67;;;11.40;99.90;;;;;;5052699;28;20761;-68
2021/11/14 10:37:46;;;;;;;11.83;10.20;;;11.50;99.90;;;;;;5051859;28;20427;-68
2021/11/14 10:40:18;;;;;;;10.37;9.13;;;11.40;99.90;;;;;;5051614;28;20404;-67
2021/11/14 10:42:50;;;;;;;10.57;9.57;;;11.50;99.90;;;;;;5059737;28;20426;-71
2021/11/14 10:45:17;;;;;;;10.33;9.33;;;11.50;99.90;;;;;;5055040;28;20456;-68
2021/11/14 10:47:44;;;;;;;9.50;8.60;;;11.60;99.90;;;;;;5052290;28;20855;-77
2021/11/14 10:50:13;;;;;;;9.50;8.47;;;11.80;99.90;;;;;;5054298;28;20898;-68
2021/11/14 10:52:54;;;;;;;9.90;8.90;;;12.00;99.90;;;;;;5050110;28;20420;-69
2021/11/14 10:55:21;;;;;;;67.67;47.43;;;12.10;99.90;;;;;;5048827;28;20432;-68
2021/11/14 10:57:49;;;;;;;193.67;141.80;;;12.20;99.90;;;;;;5050743;28;20447;-67
2021/11/14 11:00:17;;;;;;;18.73;16.33;;;12.30;99.90;;;;;;5050958;28;20400;-68
2021/11/14 11:02:45;;;;;;;10.50;9.40;;;12.40;99.90;;;;;;5052407;28;20412;-77
2021/11/14 11:05:25;;;;;;;11.27;10.10;;;12.50;99.90;;;;;;5051082;28;20440;-68
2021/11/14 11:07:56;;;;;;;10.60;9.50;;;12.60;99.90;;;;;;5050428;28;20455;-68
2021/11/14 11:10:43;;;;;;;11.43;10.30;;;12.60;99.90;;;;;;5051029;28;20439;-68
2021/11/14 11:13:30;;;;;;;11.53;10.33;;;12.60;99.90;;;;;;5051057;28;20438;-67
2021/11/14 11:15:59;;;;;;;15.23;12.10;;;12.50;99.90;;;;;;5054745;28;20433;-68
2021/11/14 11:18:25;;;;;;;11.70;9.37;;;12.50;99.90;;;;;;5056482;28;20416;-67
2021/11/14 11:20:54;;;;;;;10.77;9.77;;;12.60;99.90;;;;;;5054425;28;20418;-68
2021/11/14 11:23:22;;;;;;;11.53;10.40;;;12.80;99.90;;;;;;5056364;28;20185;-68
2021/11/14 11:25:53;;;;;;;10.50;9.47;;;13.10;99.90;;;;;;5056039;28;20398;-68
2021/11/14 11:28:23;;;;;;;9.37;8.57;;;13.40;99.90;;;;;;5055483;28;20470;-67
2021/11/14 11:30:55;;;;;;;10.37;9.37;;;13.70;99.90;;;;;;5035794;28;20428;-67
2021/11/14 11:33:23;;;;;;;11.70;10.50;;;14.10;99.90;;;;;;5043656;28;20415;-68
2021/11/14 11:35:51;;;;;;;9.60;8.80;;;14.40;99.00;;;;;;5054688;28;20473;-69
2021/11/14 11:38:19;;;;;;;9.97;9.10;;;14.80;98.40;;;;;;5056027;28;20496;-68
2021/11/14 11:40:45;;;;;;;10.03;9.13;;;15.00;97.40;;;;;;5054729;28;20416;-78
2021/11/14 11:43:11;;;;;;;9.27;8.40;;;15.10;97.00;;;;;;5055636;28;20417;-68
2021/11/14 11:45:40;;;;;;;9.73;8.80;;;15.10;96.40;;;;;;5055468;28;20519;-68
2021/11/14 11:48:17;;;;;;;45.67;34.40;;;15.10;96.40;;;;;;5035283;28;20506;-67
2021/11/14 11:50:43;;;;;;;37.40;28.67;;;14.90;96.30;;;;;;5051431;28;20394;-67
2021/11/14 11:53:21;;;;;;;74.53;51.40;;;14.90;95.90;;;;;;5039483;28;20432;-67
2021/11/14 11:55:48;;;;;;;27.60;24.60;;;14.70;95.90;;;;;;5054624;28;20171;-69
2021/11/14 11:58:16;;;;;;;9.77;8.90;;;14.60;96.60;;;;;;5054773;28;20939;-68
2021/11/14 12:00:58;;;;;;;11.00;10.00;;;14.40;96.50;;;;;;5054594;28;20420;-68
2021/11/14 12:03:38;;;;;;;9.80;8.90;;;14.30;96.90;;;;;;5035887;28;20414;-67
2021/11/14 12:06:16;;;;;;;11.80;8.67;;;14.20;97.40;;;;;;5034782;28;20756;-68
2021/11/14 12:08:45;;;;;;;8.70;8.00;;;14.10;97.20;;;;;;5043640;28;20533;-68
2021/11/14 12:11:34;;;;;;;9.10;8.30;;;14.00;97.80;;;;;;5054877;28;20408;-68
2021/11/14 12:14:13;;;;;;;9.83;9.00;;;13.90;98.00;;;;;;5054985;28;20407;-69
2021/11/14 12:16:39;;;;;;;9.23;8.33;;;13.90;97.90;;;;;;5055807;28;20451;-68
2021/11/14 12:19:05;;;;;;;9.93;9.03;;;13.80;97.90;;;;;;5054373;28;20411;-69
2021/11/14 12:21:31;;;;;;;425.10;288.87;;;13.70;98.40;;;;;;5054971;28;20433;-68
2021/11/14 12:24:00;;;;;;;29.13;23.67;;;13.60;98.90;;;;;;5052537;28;20185;-68
2021/11/14 12:26:32;;;;;;;27.67;22.13;;;13.60;98.10;;;;;;5053753;28;20887;-69
2021/11/14 12:29:03;;;;;;;12.10;9.83;;;13.50;98.50;;;;;;5053816;28;20412;-68
2021/11/14 12:31:31;;;;;;;7.70;7.00;;;13.50;98.40;;;;;;5035307;28;20731;-68